Time;durP1;ratioP1;P1;durP2;ratioP2;P2;SDS_P1;SDS_P2;PMS_P1;PMS_P2;Temp;Humidity;BMP_temperature;BMP_pressure;BME280_temperature;BME280_humidity;BME280_pressure;Samples;Min_cycle;Max_cycle;Signal;HPM_P1;HPM_P2
2021/07/30 00:02:19;;;;;;;5.37;4.17;;;19.90;1.00;;;;;;5131600;27;20200;-56
2021/07/30 00:04:46;;;;;;;4.43;4.00;;;19.90;1.00;;;;;;5130511;27;20281;-56
2021/07/30 00:07:11;;;;;;;4.37;3.93;;;19.90;1.00;;;;;;5130835;27;20181;-54
2021/07/30 00:09:37;;;;;;;4.60;4.20;;;19.80;1.00;;;;;;5132691;27;20442;-55
2021/07/30 00:12:03;;;;;;;4.23;3.83;;;19.70;1.00;;;;;;5126986;27;20639;-56
2021/07/30 00:14:28;;;;;;;5.97;4.50;;;19.70;1.00;;;;;;5133830;27;20189;-57
2021/07/30 00:16:54;;;;;;;8.40;4.57;;;19.70;1.00;;;;;;5132291;27;20514;-55
2021/07/30 00:19:19;;;;;;;5.33;4.50;;;19.60;1.00;;;;;;5151263;27;20203;-55
2021/07/30 00:21:45;;;;;;;5.80;5.30;;;19.60;1.00;;;;;;5118797;27;20204;-55
2021/07/30 00:24:10;;;;;;;6.93;3.90;;;19.60;1.00;;;;;;5132305;27;20178;-56
2021/07/30 00:26:36;;;;;;;6.20;3.93;;;19.60;1.00;;;;;;5125978;27;20622;-55
2021/07/30 00:29:02;;;;;;;5.53;4.10;;;19.60;1.00;;;;;;5131903;27;20705;-55
2021/07/30 00:31:27;;;;;;;8.50;4.30;;;19.60;1.00;;;;;;5134421;27;20181;-54
2021/07/30 00:33:53;;;;;;;5.30;4.10;;;19.50;1.00;;;;;;5127750;27;20643;-54
2021/07/30 00:36:18;;;;;;;4.60;4.20;;;21.50;1.00;;;;;;5139264;27;20184;-56
2021/07/30 00:38:44;;;;;;;6.63;4.20;;;19.50;1.00;;;;;;5139683;27;20189;-55
2021/07/30 00:41:10;;;;;;;4.87;3.97;;;19.50;1.00;;;;;;5132611;27;20620;-55
2021/07/30 00:43:35;;;;;;;4.87;4.37;;;19.40;1.00;;;;;;5125751;27;20662;-55
2021/07/30 00:46:01;;;;;;;5.97;4.73;;;19.40;1.00;;;;;;5132613;27;20565;-56
2021/07/30 00:48:29;;;;;;;5.00;4.50;;;19.40;1.00;;;;;;5130927;27;20350;-55
2021/07/30 00:50:56;;;;;;;4.50;4.10;;;19.40;1.00;;;;;;5112799;27;20504;-58
2021/07/30 00:53:21;;;;;;;5.20;4.07;;;19.40;1.00;;;;;;5137921;27;20478;-55
2021/07/30 00:55:48;;;;;;;5.10;4.70;;;19.40;1.00;;;;;;5132858;27;20491;-55
2021/07/30 00:58:14;;;;;;;4.70;3.80;;;19.40;1.00;;;;;;5128286;27;20202;-56
2021/07/30 01:00:41;;;;;;;4.43;4.00;;;19.70;1.00;;;;;;5132151;27;20442;-55
2021/07/30 01:03:07;;;;;;;5.93;4.03;;;19.40;1.00;;;;;;5131717;27;21853;-55
2021/07/30 01:05:33;;;;;;;7.97;4.83;;;19.40;1.00;;;;;;5131911;27;20820;-56
2021/07/30 01:08:00;;;;;;;5.00;4.57;;;19.40;1.00;;;;;;5132208;27;20510;-55
2021/07/30 01:10:26;;;;;;;4.70;4.30;;;19.40;1.00;;;;;;5141809;27;20173;-55
2021/07/30 01:12:52;;;;;;;4.73;4.33;;;19.40;1.00;;;;;;5118360;27;20988;-56
2021/07/30 01:15:18;;;;;;;6.50;4.00;;;19.40;1.00;;;;;;5124492;27;20233;-56
2021/07/30 01:17:43;;;;;;;4.80;4.40;;;19.40;1.00;;;;;;5126230;27;20525;-56
2021/07/30 01:20:13;;;;;;;4.80;4.23;;;19.40;1.00;;;;;;5127336;27;20181;-56
2021/07/30 01:22:57;;;;;;;5.23;4.47;;;19.40;1.00;;;;;;5131942;27;20181;-55
2021/07/30 01:25:24;;;;;;;4.63;3.83;;;19.30;1.00;;;;;;5132031;27;20851;-56
2021/07/30 01:27:50;;;;;;;5.50;4.57;;;19.20;1.00;;;;;;5129967;27;20435;-56
2021/07/30 01:30:18;;;;;;;4.33;3.93;;;19.20;1.00;;;;;;5132491;27;20450;-56
2021/07/30 01:32:44;;;;;;;4.77;4.27;;;19.10;1.00;;;;;;5133751;27;20443;-54
2021/07/30 01:35:10;;;;;;;5.40;4.00;;;19.00;1.00;;;;;;5129586;27;20924;-55
2021/07/30 01:37:36;;;;;;;6.57;4.43;;;19.10;1.00;;;;;;5120811;27;20964;-55
2021/07/30 01:40:03;;;;;;;4.47;4.07;;;19.10;1.00;;;;;;5133431;27;20486;-55
2021/07/30 01:42:29;;;;;;;6.23;4.60;;;19.10;1.00;;;;;;5128546;27;20454;-55
2021/07/30 01:44:54;;;;;;;4.90;4.00;;;19.10;1.00;;;;;;5128782;27;20458;-56
2021/07/30 01:47:20;;;;;;;6.20;4.13;;;19.00;1.00;;;;;;5130388;27;20174;-56
2021/07/30 01:49:47;;;;;;;6.43;4.37;;;19.00;1.00;;;;;;5131627;27;20177;-55
2021/07/30 01:52:13;;;;;;;4.87;4.37;;;18.90;1.00;;;;;;5128463;27;20470;-55
2021/07/30 01:54:39;;;;;;;5.03;4.33;;;18.90;1.00;;;;;;5122636;27;20447;-56
2021/07/30 01:57:04;;;;;;;4.60;4.10;;;18.80;1.00;;;;;;5132227;27;20563;-55
2021/07/30 01:59:30;;;;;;;4.73;4.13;;;18.80;1.00;;;;;;5132541;27;20441;-56
2021/07/30 02:01:56;;;;;;;4.77;4.37;;;18.80;1.00;;;;;;5138294;27;20181;-54
2021/07/30 02:04:22;;;;;;;5.90;5.20;;;18.80;1.00;;;;;;5131031;27;20213;-55
2021/07/30 02:06:47;;;;;;;4.77;4.20;;;18.70;1.00;;;;;;5129084;27;20181;-55
2021/07/30 02:09:13;;;;;;;9.30;3.87;;;18.80;1.00;;;;;;5129038;27;20697;-55
2021/07/30 02:11:51;;;;;;;5.20;4.10;;;18.80;1.00;;;;;;5127455;27;20755;-56
2021/07/30 02:14:17;;;;;;;6.00;4.30;;;18.80;1.00;;;;;;5132704;27;20301;-55
2021/07/30 02:16:48;;;;;;;5.97;4.70;;;18.80;1.00;;;;;;5130671;27;20472;-55
2021/07/30 02:19:16;;;;;;;4.40;4.00;;;18.80;1.00;;;;;;5130778;27;20950;-55
2021/07/30 02:21:42;;;;;;;4.23;3.60;;;18.80;1.00;;;;;;5113028;27;20461;-55
2021/07/30 02:24:08;;;;;;;3.90;3.37;;;18.70;1.00;;;;;;5129148;27;20719;-55
2021/07/30 02:26:33;;;;;;;3.77;3.37;;;18.70;1.00;;;;;;5128722;27;20213;-55
2021/07/30 02:28:59;;;;;;;4.20;3.80;;;18.70;1.00;;;;;;5128857;27;20192;-55
2021/07/30 02:31:25;;;;;;;4.70;3.60;;;18.60;1.00;;;;;;5131328;27;20698;-56
2021/07/30 02:33:51;;;;;;;11.10;5.73;;;18.60;1.00;;;;;;5130664;27;20721;-54
2021/07/30 02:36:17;;;;;;;5.43;4.47;;;18.50;1.00;;;;;;5130099;27;20447;-55
2021/07/30 02:38:43;;;;;;;4.10;3.77;;;18.50;1.00;;;;;;5128279;27;20446;-55
2021/07/30 02:41:08;;;;;;;6.53;4.87;;;18.50;1.00;;;;;;5131323;27;20474;-55
2021/07/30 02:43:34;;;;;;;6.33;4.37;;;18.50;1.00;;;;;;5125726;27;20669;-55
2021/07/30 02:45:59;;;;;;;4.43;4.03;;;18.40;1.00;;;;;;5129788;27;20197;-56
2021/07/30 02:48:25;;;;;;;4.73;4.07;;;18.40;1.00;;;;;;5125618;27;20174;-55
2021/07/30 02:50:50;;;;;;;4.63;4.23;;;18.30;1.00;;;;;;5129715;27;20483;-55
2021/07/30 02:53:16;;;;;;;5.53;4.07;;;18.30;1.00;;;;;;5128993;27;20444;-54
2021/07/30 02:55:42;;;;;;;5.20;4.47;;;18.30;1.00;;;;;;5128589;27;20237;-55
2021/07/30 02:58:07;;;;;;;5.53;4.97;;;18.30;1.00;;;;;;5106607;27;20562;-55
2021/07/30 03:00:33;;;;;;;4.80;4.33;;;18.30;1.00;;;;;;5129147;27;20554;-55
2021/07/30 03:02:58;;;;;;;5.10;4.60;;;18.30;1.00;;;;;;5130157;27;20273;-55
2021/07/30 03:05:24;;;;;;;5.83;4.93;;;18.30;1.00;;;;;;5129188;27;20254;-55
2021/07/30 03:07:49;;;;;;;5.70;5.20;;;18.20;1.00;;;;;;5106509;27;20242;-56
2021/07/30 03:10:15;;;;;;;9.83;6.73;;;18.20;1.00;;;;;;5122257;27;20550;-54
2021/07/30 03:12:41;;;;;;;6.40;5.30;;;18.10;1.00;;;;;;5130214;27;20195;-57
2021/07/30 03:15:06;;;;;;;5.70;5.07;;;18.10;1.00;;;;;;5130157;27;20687;-56
2021/07/30 03:17:32;;;;;;;7.47;5.50;;;18.10;1.00;;;;;;5116526;27;20188;-56
2021/07/30 03:19:57;;;;;;;5.60;4.60;;;18.10;1.00;;;;;;5126264;27;20208;-55
2021/07/30 03:22:23;;;;;;;5.10;4.60;;;18.10;1.00;;;;;;5129154;27;20216;-56
2021/07/30 03:24:49;;;;;;;5.00;4.53;;;18.00;1.00;;;;;;5128297;27;20210;-55
2021/07/30 03:27:14;;;;;;;6.70;4.73;;;18.00;1.00;;;;;;5128903;27;20520;-55
2021/07/30 03:29:40;;;;;;;5.70;5.20;;;17.90;1.00;;;;;;5128787;27;20174;-56
2021/07/30 03:32:06;;;;;;;4.73;4.33;;;18.00;1.00;;;;;;5130204;27;20169;-55
2021/07/30 03:34:32;;;;;;;6.93;5.20;;;18.00;1.00;;;;;;5127559;27;20638;-56
2021/07/30 03:37:00;;;;;;;5.00;4.33;;;18.10;1.00;;;;;;5128208;27;20446;-57
2021/07/30 03:39:26;;;;;;;6.37;5.20;;;18.00;1.00;;;;;;5127242;27;20466;-54
2021/07/30 03:41:51;;;;;;;5.50;4.77;;;18.10;1.00;;;;;;5126477;27;20482;-55
2021/07/30 03:44:17;;;;;;;5.77;5.23;;;18.10;1.00;;;;;;5129262;27;20896;-56
2021/07/30 03:46:42;;;;;;;5.23;4.73;;;18.10;1.00;;;;;;5124465;27;20199;-56
2021/07/30 03:49:08;;;;;;;5.17;4.40;;;18.00;1.00;;;;;;5126612;27;20181;-57
2021/07/30 03:51:33;;;;;;;6.50;5.30;;;18.10;1.00;;;;;;5127515;27;20199;-55
2021/07/30 03:53:59;;;;;;;8.13;5.23;;;18.10;1.00;;;;;;5130576;27;20187;-55
2021/07/30 03:56:24;;;;;;;7.90;5.63;;;18.10;1.00;;;;;;5129554;27;20543;-56
2021/07/30 03:58:50;;;;;;;7.17;6.00;;;18.00;1.00;;;;;;5128932;27;20196;-56
2021/07/30 04:01:16;;;;;;;7.40;6.43;;;17.80;1.00;;;;;;5128825;27;20181;-56
2021/07/30 04:03:45;;;;;;;6.70;6.00;;;17.90;1.00;;;;;;5130056;27;20321;-56
2021/07/30 04:06:12;;;;;;;6.50;5.80;;;17.90;1.00;;;;;;5129579;27;20194;-56
2021/07/30 04:08:38;;;;;;;8.70;5.73;;;17.80;1.00;;;;;;5130602;27;20449;-55
2021/07/30 04:11:04;;;;;;;5.67;5.17;;;17.80;1.00;;;;;;5128433;27;20947;-55
2021/07/30 04:13:31;;;;;;;6.10;5.27;;;18.00;1.00;;;;;;5130648;27;20434;-55
2021/07/30 04:16:06;;;;;;;6.43;5.20;;;18.00;1.00;;;;;;5130079;27;20181;-54
2021/07/30 04:18:32;;;;;;;6.60;5.20;;;18.00;1.00;;;;;;5129598;27;20445;-55
2021/07/30 04:20:58;;;;;;;9.27;5.67;;;18.00;1.00;;;;;;5126451;27;20977;-54
2021/07/30 04:23:24;;;;;;;5.87;5.20;;;18.00;1.00;;;;;;5111788;27;20447;-54
2021/07/30 04:25:50;;;;;;;5.97;4.37;;;18.00;1.00;;;;;;5130771;27;20212;-54
2021/07/30 04:28:15;;;;;;;5.27;4.70;;;18.00;1.00;;;;;;5125811;27;20248;-56
2021/07/30 04:30:41;;;;;;;5.60;4.93;;;18.00;1.00;;;;;;5129125;27;20184;-55
2021/07/30 04:33:09;;;;;;;5.13;4.73;;;18.00;1.00;;;;;;5127387;27;20180;-54
2021/07/30 04:35:35;;;;;;;5.80;5.30;;;18.20;1.00;;;;;;5131041;27;20277;-56
2021/07/30 04:38:01;;;;;;;4.73;4.33;;;18.30;1.00;;;;;;5137800;27;20446;-56
2021/07/30 04:40:27;;;;;;;5.87;5.37;;;18.30;1.00;;;;;;5133520;27;20437;-55
2021/07/30 04:42:55;;;;;;;5.43;4.60;;;18.40;1.00;;;;;;5113659;27;20276;-55
2021/07/30 04:45:20;;;;;;;5.70;4.70;;;18.50;1.00;;;;;;5136570;27;20679;-55
2021/07/30 04:47:46;;;;;;;4.63;4.23;;;18.50;1.00;;;;;;5126103;27;20434;-55
2021/07/30 04:50:11;;;;;;;5.60;4.77;;;18.50;1.00;;;;;;5131502;27;20183;-56
2021/07/30 04:52:38;;;;;;;5.80;5.20;;;18.60;1.00;;;;;;5113246;27;20212;-56
2021/07/30 04:55:03;;;;;;;6.57;4.57;;;18.60;1.00;;;;;;5115397;27;20200;-54
2021/07/30 04:57:29;;;;;;;4.47;4.07;;;18.80;1.00;;;;;;5133671;27;20796;-55
2021/07/30 04:59:54;;;;;;;5.20;4.70;;;18.80;1.00;;;;;;5129626;27;20181;-56
2021/07/30 05:02:20;;;;;;;5.57;4.67;;;18.90;1.00;;;;;;5131250;27;20207;-56
2021/07/30 05:04:46;;;;;;;7.40;4.30;;;19.00;1.00;;;;;;5131656;27;20208;-56
2021/07/30 05:07:11;;;;;;;4.80;4.10;;;19.00;1.00;;;;;;5131657;27;20265;-55
2021/07/30 05:09:37;;;;;;;4.73;4.23;;;19.10;1.00;;;;;;5127886;27;20182;-55
2021/07/30 05:12:02;;;;;;;4.73;4.30;;;19.30;1.00;;;;;;5131642;27;20535;-56
2021/07/30 05:14:28;;;;;;;5.33;4.50;;;19.30;1.00;;;;;;5132187;27;20552;-55
2021/07/30 05:16:53;;;;;;;3.97;3.60;;;19.40;1.00;;;;;;5130908;27;20184;-56
2021/07/30 05:19:19;;;;;;;5.70;4.50;;;19.50;1.00;;;;;;5131830;27;20191;-56
2021/07/30 05:21:45;;;;;;;7.40;4.00;;;19.60;1.00;;;;;;5132516;27;20245;-55
2021/07/30 05:24:10;;;;;;;4.83;4.33;;;19.70;1.00;;;;;;5129794;27;20542;-55
2021/07/30 05:26:36;;;;;;;5.90;4.60;;;19.70;1.00;;;;;;5133862;27;20201;-55
2021/07/30 05:29:05;;;;;;;7.20;4.17;;;19.80;1.00;;;;;;5142590;27;20197;-55
2021/07/30 05:31:30;;;;;;;5.30;3.63;;;19.80;1.00;;;;;;5131435;27;20181;-55
2021/07/30 05:33:56;;;;;;;5.53;4.87;;;19.90;1.00;;;;;;5129758;27;20530;-55
2021/07/30 05:36:21;;;;;;;5.17;4.57;;;20.10;1.00;;;;;;5096920;27;20182;-56
2021/07/30 05:38:48;;;;;;;5.20;4.70;;;20.10;1.00;;;;;;5131231;27;20611;-54
2021/07/30 05:41:14;;;;;;;5.70;4.20;;;20.20;1.00;;;;;;5132737;27;20269;-55
2021/07/30 05:43:41;;;;;;;4.43;4.03;;;20.30;1.00;;;;;;5132033;27;20465;-56
2021/07/30 05:46:07;;;;;;;5.10;4.37;;;20.40;1.00;;;;;;5132628;27;20503;-55
2021/07/30 05:48:33;;;;;;;4.70;4.20;;;20.40;1.00;;;;;;5129169;27;20529;-55
2021/07/30 05:50:59;;;;;;;5.50;4.33;;;20.50;1.00;;;;;;5130131;27;21242;-55
2021/07/30 05:53:25;;;;;;;4.93;4.40;;;20.70;1.00;;;;;;5128534;27;20561;-56
2021/07/30 05:55:50;;;;;;;5.33;4.20;;;20.80;1.00;;;;;;5132829;27;20186;-55
2021/07/30 05:58:16;;;;;;;6.83;4.53;;;20.80;1.00;;;;;;5128642;27;20282;-54
2021/07/30 06:00:42;;;;;;;14.30;8.10;;;20.90;1.00;;;;;;5127936;27;20187;-54
2021/07/30 06:03:07;;;;;;;8.80;4.63;;;21.00;1.00;;;;;;5129403;27;20219;-54
2021/07/30 06:05:33;;;;;;;4.90;4.40;;;21.10;1.00;;;;;;5126481;27;20201;-54
2021/07/30 06:08:00;;;;;;;4.83;3.97;;;21.10;1.00;;;;;;5126694;27;20534;-54
2021/07/30 06:10:26;;;;;;;5.13;4.30;;;21.30;1.00;;;;;;5132493;27;20439;-57
2021/07/30 06:12:52;;;;;;;5.80;4.17;;;21.20;1.00;;;;;;5130326;27;20468;-54
2021/07/30 06:15:22;;;;;;;6.00;3.87;;;21.30;1.00;;;;;;5129991;27;20816;-53
2021/07/30 06:17:48;;;;;;;4.10;3.70;;;21.40;1.00;;;;;;5127720;27;20475;-56
2021/07/30 06:20:13;;;;;;;4.23;3.73;;;21.30;1.00;;;;;;5131698;27;20475;-54
2021/07/30 06:22:39;;;;;;;7.80;4.33;;;21.30;1.00;;;;;;5129558;27;20701;-54
2021/07/30 06:25:06;;;;;;;9.27;4.70;;;21.40;1.00;;;;;;5129965;27;20258;-54
2021/07/30 06:27:31;;;;;;;8.27;3.93;;;21.60;1.00;;;;;;5127617;27;20192;-55
2021/07/30 06:29:57;;;;;;;3.97;3.43;;;21.70;1.00;;;;;;5128746;27;20439;-54
2021/07/30 06:32:23;;;;;;;5.10;3.80;;;21.70;1.00;;;;;;5128656;27;20336;-55
2021/07/30 06:34:49;;;;;;;4.93;3.30;;;21.70;1.00;;;;;;5130722;27;20530;-54
2021/07/30 06:37:14;;;;;;;4.33;3.60;;;21.80;1.00;;;;;;5113231;27;20181;-53
2021/07/30 06:39:40;;;;;;;3.90;3.50;;;22.00;1.00;;;;;;5113022;27;20181;-54
2021/07/30 06:42:06;;;;;;;4.23;3.83;;;22.30;1.00;;;;;;5126814;27;20186;-56
2021/07/30 06:44:31;;;;;;;8.10;3.83;;;22.50;1.00;;;;;;5130804;27;20208;-55
2021/07/30 06:46:57;;;;;;;4.77;4.17;;;22.70;1.00;;;;;;5127658;27;20239;-54
2021/07/30 06:49:22;;;;;;;4.00;3.60;;;22.80;1.00;;;;;;5131768;27;20264;-55
2021/07/30 06:51:48;;;;;;;4.30;3.83;;;23.00;1.00;;;;;;5129502;27;20221;-54
2021/07/30 06:54:13;;;;;;;4.97;3.43;;;23.10;1.00;;;;;;5127557;27;20444;-54
2021/07/30 06:56:39;;;;;;;7.97;3.50;;;23.20;1.00;;;;;;5129174;27;20189;-55
2021/07/30 06:59:04;;;;;;;4.47;3.37;;;23.20;1.00;;;;;;5129546;27;20306;-55
2021/07/30 07:01:30;;;;;;;4.40;3.60;;;23.30;1.00;;;;;;5125875;27;20188;-54
2021/07/30 07:03:55;;;;;;;5.03;3.33;;;23.40;1.00;;;;;;5133340;27;20223;-55
2021/07/30 07:06:21;;;;;;;7.43;3.73;;;23.60;1.00;;;;;;5137243;27;20208;-53
2021/07/30 07:08:46;;;;;;;5.23;3.50;;;23.70;1.00;;;;;;5133027;27;20182;-55
2021/07/30 07:11:12;;;;;;;4.07;3.20;;;24.00;1.00;;;;;;5130195;27;20183;-53
2021/07/30 07:13:38;;;;;;;3.50;3.20;;;24.10;1.00;;;;;;5128476;27;20186;-55
2021/07/30 07:16:04;;;;;;;6.63;4.40;;;24.30;1.00;;;;;;5128796;27;20678;-54
2021/07/30 07:18:33;;;;;;;4.20;2.50;;;24.50;1.00;;;;;;5128514;27;20190;-53
2021/07/30 07:20:58;;;;;;;3.13;2.83;;;24.10;1.00;;;;;;5130370;27;20461;-53
2021/07/30 07:23:24;;;;;;;3.10;2.80;;;24.30;1.00;;;;;;5127383;27;20446;-55
2021/07/30 07:25:50;;;;;;;4.70;3.40;;;24.50;1.00;;;;;;5130398;27;20204;-53
2021/07/30 07:28:15;;;;;;;3.43;2.43;;;24.50;1.00;;;;;;5111177;27;20217;-55
2021/07/30 07:30:41;;;;;;;3.87;2.50;;;24.50;1.00;;;;;;5124810;27;20174;-55
2021/07/30 07:33:06;;;;;;;4.17;2.60;;;24.70;1.00;;;;;;5126523;27;20185;-52
2021/07/30 07:35:32;;;;;;;4.23;2.43;;;24.70;1.00;;;;;;5128209;27;20186;-54
2021/07/30 07:38:02;;;;;;;3.73;2.17;;;25.00;1.00;;;;;;5128773;27;20234;-53
2021/07/30 07:40:28;;;;;;;3.33;2.23;;;25.20;1.00;;;;;;5128647;27;20184;-55
2021/07/30 07:42:53;;;;;;;3.03;2.73;;;25.20;1.00;;;;;;5129766;27;20452;-55
2021/07/30 07:45:19;;;;;;;2.60;2.10;;;25.20;1.00;;;;;;5129720;27;20205;-53
2021/07/30 07:47:44;;;;;;;2.80;2.00;;;25.20;1.00;;;;;;5129982;27;20208;-53
2021/07/30 07:50:10;;;;;;;2.70;2.13;;;25.20;1.00;;;;;;5128396;27;20193;-53
2021/07/30 07:52:35;;;;;;;2.80;2.20;;;25.20;1.00;;;;;;5130346;27;20228;-55
2021/07/30 07:55:01;;;;;;;4.23;2.33;;;25.30;1.00;;;;;;5129312;27;20311;-55
2021/07/30 07:57:27;;;;;;;3.50;2.37;;;25.50;1.00;;;;;;5129375;27;20217;-54
2021/07/30 07:59:52;;;;;;;2.53;2.33;;;25.50;1.00;;;;;;5109865;27;20446;-56
2021/07/30 08:02:18;;;;;;;2.80;2.23;;;25.50;1.00;;;;;;5125583;27;20622;-53
2021/07/30 08:04:44;;;;;;;3.00;2.23;;;25.80;1.00;;;;;;5126557;27;20227;-55
2021/07/30 08:07:11;;;;;;;3.23;2.10;;;25.90;1.00;;;;;;5129537;27;20193;-54
2021/07/30 08:09:37;;;;;;;3.00;2.33;;;25.90;1.00;;;;;;5128481;27;20599;-55
2021/07/30 08:12:03;;;;;;;5.43;2.70;;;25.80;1.00;;;;;;5128799;27;20471;-54
2021/07/30 08:14:30;;;;;;;2.67;2.47;;;25.80;1.00;;;;;;5130608;27;20638;-54
2021/07/30 08:16:55;;;;;;;5.00;2.60;;;25.90;1.00;;;;;;5132308;27;21009;-53
2021/07/30 08:19:21;;;;;;;3.80;2.50;;;25.90;1.00;;;;;;5131961;27;20529;-53
2021/07/30 08:21:46;;;;;;;2.90;2.37;;;25.90;1.00;;;;;;5133225;27;20240;-54
2021/07/30 08:24:12;;;;;;;2.70;2.27;;;25.90;1.00;;;;;;5131120;27;20204;-56
2021/07/30 08:26:38;;;;;;;3.30;2.43;;;25.80;1.00;;;;;;5133553;27;20209;-55
2021/07/30 08:29:04;;;;;;;2.73;2.20;;;25.90;1.00;;;;;;5133783;27;20190;-54
2021/07/30 08:31:29;;;;;;;3.63;2.50;;;25.80;1.00;;;;;;5126512;27;20605;-54
2021/07/30 08:33:55;;;;;;;2.90;2.60;;;25.80;1.00;;;;;;5132331;27;20185;-53
2021/07/30 08:36:21;;;;;;;3.67;2.03;;;25.90;1.00;;;;;;5129451;27;20270;-56
2021/07/30 08:38:47;;;;;;;4.97;2.43;;;26.00;1.00;;;;;;5128073;27;20174;-55
2021/07/30 08:41:21;;;;;;;2.77;2.57;;;25.70;1.00;;;;;;5137558;27;20213;-53
2021/07/30 08:44:05;;;;;;;2.30;2.20;;;25.60;1.00;;;;;;5141727;27;20433;-55
2021/07/30 08:46:31;;;;;;;3.73;2.63;;;25.40;1.00;;;;;;5137004;27;20466;-55
2021/07/30 08:48:57;;;;;;;4.13;1.90;;;25.30;1.00;;;;;;5122028;27;20445;-54
2021/07/30 08:51:32;;;;;;;3.23;2.33;;;25.20;1.00;;;;;;5128678;27;20446;-54
2021/07/30 08:53:59;;;;;;;2.80;2.60;;;25.20;1.00;;;;;;5131264;27;20424;-53
2021/07/30 08:56:25;;;;;;;2.50;2.30;;;25.50;1.00;;;;;;5136536;27;20948;-54
2021/07/30 08:58:51;;;;;;;2.63;2.30;;;25.70;1.00;;;;;;5128150;27;20429;-54
2021/07/30 09:01:16;;;;;;;2.70;2.10;;;25.90;1.00;;;;;;5142699;27;20178;-54
2021/07/30 09:03:44;;;;;;;5.63;2.33;;;26.10;1.00;;;;;;5135641;27;20446;-55
2021/07/30 09:06:21;;;;;;;3.47;2.47;;;26.20;1.00;;;;;;5147656;27;20204;-53
2021/07/30 09:09:02;;;;;;;8.20;2.73;;;26.30;1.00;;;;;;5141547;27;20866;-55
2021/07/30 09:11:32;;;;;;;4.07;2.20;;;26.20;1.00;;;;;;5132008;27;20435;-55
2021/07/30 09:13:59;;;;;;;4.13;2.63;;;26.40;1.00;;;;;;5134513;27;20454;-55
2021/07/30 09:16:26;;;;;;;5.53;2.60;;;26.50;1.00;;;;;;5129494;27;20908;-54
2021/07/30 09:18:52;;;;;;;3.33;2.57;;;26.60;1.00;;;;;;5129886;27;20490;-55
2021/07/30 09:21:33;;;;;;;3.83;2.80;;;26.60;1.00;;;;;;5132157;27;20427;-56
2021/07/30 09:24:11;;;;;;;3.80;2.80;;;26.50;1.00;;;;;;5130931;27;20427;-55
2021/07/30 09:26:48;;;;;;;3.30;2.90;;;26.40;1.00;;;;;;5130889;27;20553;-56
2021/07/30 09:29:18;;;;;;;3.73;2.60;;;26.40;1.00;;;;;;5133235;27;20553;-53
2021/07/30 09:31:44;;;;;;;5.40;2.57;;;;;;;;;;5130604;27;20450;-56
2021/07/30 09:34:35;;;;;;;4.10;3.70;;;26.10;1.00;;;;;;5113051;27;20526;-54
2021/07/30 09:37:06;;;;;;;4.20;3.30;;;25.70;1.00;;;;;;5130679;27;20417;-53
2021/07/30 09:39:38;;;;;;;2.90;2.70;;;25.40;1.00;;;;;;5136701;27;20521;-53
2021/07/30 09:42:12;;;;;;;3.23;2.50;;;25.60;1.00;;;;;;5122429;27;20443;-52
2021/07/30 09:44:59;;;;;;;3.07;2.77;;;25.80;1.00;;;;;;5129865;27;20534;-54
2021/07/30 09:47:27;;;;;;;3.17;2.40;;;25.90;1.00;;;;;;5126103;27;20445;-54
2021/07/30 09:49:58;;;;;;;2.90;2.60;;;25.80;1.00;;;;;;5129714;27;20432;-56
2021/07/30 09:52:29;;;;;;;2.73;2.50;;;26.00;1.00;;;;;;5114936;27;20458;-57
2021/07/30 09:54:57;;;;;;;4.20;2.93;;;26.30;1.00;;;;;;5128090;27;20440;-56
2021/07/30 09:57:27;;;;;;;4.10;3.00;;;26.60;1.00;;;;;;5131365;27;20482;-56
2021/07/30 09:59:58;;;;;;;5.10;3.50;;;26.80;1.00;;;;;;5127289;27;20893;-55
2021/07/30 10:02:26;;;;;;;3.47;2.17;;;26.80;1.00;;;;;;5129549;27;20438;-57
2021/07/30 10:04:52;;;;;;;3.60;3.03;;;26.60;1.00;;;;;;5130653;27;20515;-55
2021/07/30 10:07:19;;;;;;;4.63;2.87;;;26.60;1.00;;;;;;5134248;27;20431;-56
2021/07/30 10:10:09;;;;;;;3.43;2.73;;;26.20;1.00;;;;;;5127489;27;20668;-56
2021/07/30 10:12:37;;;;;;;3.00;2.70;;;26.00;1.00;;;;;;5131817;27;20438;-56
2021/07/30 10:15:05;;;;;;;3.30;3.00;;;26.10;1.00;;;;;;5127936;27;20446;-55
2021/07/30 10:17:35;;;;;;;2.53;2.30;;;26.40;1.00;;;;;;5129125;27;20436;-56
2021/07/30 10:20:03;;;;;;;3.57;2.60;;;26.50;1.00;;;;;;5113983;27;20529;-55
2021/07/30 10:22:41;;;;;;;3.60;2.47;;;26.80;1.00;;;;;;5128519;27;20530;-55
2021/07/30 10:25:09;;;;;;;3.03;2.60;;;27.00;1.00;;;;;;5140571;27;20464;-55
2021/07/30 10:27:41;;;;;;;2.67;2.47;;;27.10;1.00;;;;;;5137413;27;20427;-55
2021/07/30 10:30:15;;;;;;;3.27;2.57;;;27.30;1.00;;;;;;5131954;27;20504;-55
2021/07/30 10:32:46;;;;;;;2.83;2.37;;;27.30;1.00;;;;;;5129635;27;20830;-53
2021/07/30 10:35:14;;;;;;;3.43;2.90;;;27.30;1.00;;;;;;5127716;27;20448;-56
2021/07/30 10:37:45;;;;;;;4.90;2.83;;;27.10;1.00;;;;;;5130031;27;20834;-54
2021/07/30 10:40:24;;;;;;;4.00;2.50;;;27.10;1.00;;;;;;5124865;27;20488;-54
2021/07/30 10:43:02;;;;;;;3.37;3.07;;;26.80;1.00;;;;;;5131871;27;20521;-55
2021/07/30 10:45:29;;;;;;;2.87;2.50;;;26.70;1.00;;;;;;5117112;27;20527;-55
2021/07/30 10:48:13;;;;;;;2.93;2.63;;;26.90;1.00;;;;;;5134734;27;20443;-56
2021/07/30 10:51:13;;;;;;;3.13;2.90;;;26.90;1.00;;;;;;5127943;27;20951;-55
2021/07/30 10:53:37;;;;;;;5.63;2.80;;;26.80;1.00;;;;;;5126890;27;20462;-55
2021/07/30 10:56:27;;;;;;;3.00;2.63;;;27.00;1.00;;;;;;5134702;27;20803;-55
2021/07/30 10:58:53;;;;;;;2.57;2.37;;;27.10;1.00;;;;;;5135384;27;20193;-55
2021/07/30 11:01:21;;;;;;;2.93;2.73;;;27.20;1.00;;;;;;5126356;27;20436;-55
2021/07/30 11:03:52;;;;;;;3.90;2.97;;;27.40;1.00;;;;;;5129474;27;20515;-56
2021/07/30 11:06:28;;;;;;;3.33;2.80;;;27.30;1.00;;;;;;5136790;27;20469;-55
2021/07/30 11:09:03;;;;;;;4.27;3.00;;;27.10;1.00;;;;;;5136584;27;20923;-55
2021/07/30 11:11:43;;;;;;;2.50;2.30;;;27.00;1.00;;;;;;5128672;27;20815;-55
2021/07/30 11:14:14;;;;;;;3.73;2.57;;;27.30;1.00;;;;;;5107437;27;20967;-56
2021/07/30 11:16:51;;;;;;;2.80;2.60;;;27.50;1.00;;;;;;5138489;27;20430;-54
2021/07/30 11:19:18;;;;;;;3.40;2.60;;;27.70;1.00;;;;;;5129604;27;20598;-56
2021/07/30 11:21:45;;;;;;;2.73;2.53;;;27.90;1.00;;;;;;5123737;27;20447;-55
2021/07/30 11:24:11;;;;;;;3.40;2.90;;;28.10;1.00;;;;;;5115539;27;20533;-54
2021/07/30 11:26:39;;;;;;;2.60;2.40;;;28.20;1.00;;;;;;5130306;27;20490;-56
2021/07/30 11:29:10;;;;;;;4.20;2.90;;;28.30;1.00;;;;;;5131640;27;20441;-56
2021/07/30 11:31:37;;;;;;;3.20;2.77;;;28.20;1.00;;;;;;5128228;27;20515;-54
2021/07/30 11:34:09;;;;;;;2.70;2.50;;;27.90;1.00;;;;;;5131072;27;20447;-56
2021/07/30 11:36:34;;;;;;;3.47;2.37;;;27.70;1.00;;;;;;5135526;27;20460;-56
2021/07/30 11:39:00;;;;;;;3.67;2.63;;;27.60;1.00;;;;;;5151171;27;20430;-55
2021/07/30 11:41:25;;;;;;;2.93;2.63;;;27.90;1.00;;;;;;5131293;27;20750;-56
2021/07/30 11:44:04;;;;;;;2.63;2.40;;;28.20;1.00;;;;;;5130968;27;20181;-55
2021/07/30 11:46:31;;;;;;;3.50;2.83;;;28.40;1.00;;;;;;5129978;27;20213;-55
2021/07/30 11:48:57;;;;;;;2.57;2.37;;;28.60;1.00;;;;;;5130210;27;20443;-56
2021/07/30 11:51:23;;;;;;;2.93;2.57;;;28.40;1.00;;;;;;5134093;27;20542;-58
2021/07/30 11:53:51;;;;;;;2.90;2.50;;;28.50;1.00;;;;;;5116363;27;20854;-55
2021/07/30 11:56:17;;;;;;;3.00;2.67;;;28.30;1.00;;;;;;5135411;27;20444;-54
2021/07/30 11:59:03;;;;;;;2.70;2.50;;;28.40;1.00;;;;;;5142484;27;20872;-55
2021/07/30 12:01:30;;;;;;;3.47;3.17;;;28.50;1.00;;;;;;5155924;27;20438;-55
2021/07/30 12:04:12;;;;;;;3.67;3.23;;;28.30;1.00;;;;;;5145721;27;20455;-55
2021/07/30 12:06:44;;;;;;;6.00;3.37;;;28.40;1.00;;;;;;5133797;27;20471;-55
2021/07/30 12:09:12;;;;;;;3.10;2.80;;;28.40;1.00;;;;;;5135168;27;20527;-54
2021/07/30 12:11:42;;;;;;;4.50;2.87;;;28.40;1.00;;;;;;5135089;27;20511;-56
2021/07/30 12:14:10;;;;;;;5.87;3.00;;;28.50;1.00;;;;;;5133044;27;20435;-55
2021/07/30 12:16:36;;;;;;;2.80;2.60;;;28.70;1.00;;;;;;5134830;27;20450;-55
2021/07/30 12:19:02;;;;;;;3.43;2.87;;;28.20;1.00;;;;;;5134854;27;20466;-55
2021/07/30 12:21:27;;;;;;;3.10;2.90;;;28.10;1.00;;;;;;5132522;27;20481;-54
2021/07/30 12:24:07;;;;;;;3.10;2.80;;;28.20;1.00;;;;;;5132979;27;20200;-56
2021/07/30 12:26:37;;;;;;;2.60;2.40;;;28.40;1.00;;;;;;5130597;27;20203;-55
2021/07/30 12:29:04;;;;;;;2.60;2.40;;;28.60;1.00;;;;;;5146763;27;20501;-56
2021/07/30 12:31:31;;;;;;;3.00;2.77;;;28.80;1.00;;;;;;5155230;27;20437;-55
2021/07/30 12:34:16;;;;;;;2.97;2.73;;;28.80;1.00;;;;;;5155430;27;20428;-54
2021/07/30 12:36:43;;;;;;;4.30;2.90;;;28.80;1.00;;;;;;5155443;27;20473;-55
2021/07/30 12:39:09;;;;;;;3.57;3.27;;;28.70;1.00;;;;;;5135730;27;20450;-55
2021/07/30 12:41:35;;;;;;;3.00;2.50;;;28.70;1.00;;;;;;5132626;27;20463;-56
2021/07/30 12:44:12;;;;;;;3.33;2.73;;;28.70;1.00;;;;;;5132956;27;20514;-56
2021/07/30 12:46:43;;;;;;;5.10;2.47;;;28.70;1.00;;;;;;5134254;27;21118;-55
2021/07/30 12:49:11;;;;;;;4.03;3.10;;;28.80;1.00;;;;;;5134367;27;20463;-55
2021/07/30 12:51:42;;;;;;;5.90;2.90;;;29.00;1.00;;;;;;5110480;27;20508;-54
2021/07/30 12:54:13;;;;;;;2.93;2.73;;;28.80;1.00;;;;;;5130658;27;20813;-55
2021/07/30 12:57:00;;;;;;;3.07;2.87;;;28.60;1.00;;;;;;5097402;27;20442;-55
2021/07/30 12:59:54;;;;;;;2.73;2.50;;;28.60;1.00;;;;;;5115092;27;20443;-55
2021/07/30 13:02:25;;;;;;;3.07;2.83;;;28.80;1.00;;;;;;5133001;27;20442;-55